Flight Track Log - Related Links

Times and Time Zones

All times are in EDT time to prevent confusion due to time zone crossing. See the N6792M flight status page for this flight to view local times or setup timezone preferences in your user account.

Time Position Orientation Groundspeed Altitude Reporting Facility
EDT Latitude Longitude Course Direction KTS MPH feet Rate Location/Type
Wed 07:57:10 AM 45.0642 -87.2864 224° Southwest 98 113 3,900  Level Minneapolis Center
Wed 07:58:11 AM 45.0458 -87.3158 229° Southwest 99 114 4,100  Climbing Minneapolis Center
Wed 07:59:12 AM 45.0164 -87.3600 227° Southwest 119 137 3,900 -49 Descending Minneapolis Center
Wed 08:00:14 AM 44.9872 -87.4003 224° Southwest 134 154 4,000  Climbing Minneapolis Center
Wed 08:01:00 AM 45.0119 -87.3692 225° Southwest  Level Estimated
Wed 08:01:15 AM 44.9633 -87.4372 228° Southwest 133 153 3,900  Level Minneapolis Center
Wed 08:02:00 AM 44.9907 -87.3985 224° Southwest  Level FlightAware Approximate
Wed 08:02:16 AM 44.9364 -87.4778 227° Southwest 131 151 3,900  Level Minneapolis Center
Wed 08:03:18 AM 44.9139 -87.5114 227° Southwest 130 150 3,900 49 Level Minneapolis Center
Wed 08:04:19 AM 44.8864 -87.5436 220° Southwest 128 147 4,000 49 Climbing Minneapolis Center
Wed 08:05:20 AM 44.8597 -87.5803 224° Southwest 131 151 4,000  Level Minneapolis Center
Wed 08:06:21 AM 44.8356 -87.6189 229° Southwest 132 152 4,000  Level Minneapolis Center
Wed 08:07:23 AM 44.8111 -87.6547 226° Southwest 131 151 4,000  Level Minneapolis Center
Wed 08:08:24 AM 44.7878 -87.6903 227° Southwest 129 148 4,000  Level Minneapolis Center
Wed 08:09:25 AM 44.7586 -87.7356 228° Southwest 130 150 4,000 -49 Level Minneapolis Center
Wed 08:10:27 AM 44.7328 -87.7736 226° Southwest 133 153 3,900 -49 Descending Minneapolis Center
Wed 08:11:28 AM 44.7061 -87.8103 224° Southwest 135 155 3,900  Level Minneapolis Center
Wed 08:12:30 AM 44.6811 -87.8469 226° Southwest 133 153 3,900  Level Minneapolis Center
Wed 08:13:31 AM 44.6567 -87.8839 227° Southwest 131 151 3,900 -49 Level Minneapolis Center
Wed 08:14:33 AM 44.6289 -87.9194 222° Southwest 133 153 3,800 -244 Descending Minneapolis Center
Wed 08:15:34 AM 44.5986 -87.9508 216° Southwest 134 154 3,400 -390 Descending Minneapolis Center
Wed 08:16:36 AM 44.5694 -87.9925 226° Southwest 143 165 3,000 -488 Descending Minneapolis Center
Wed 08:17:37 AM 44.5325 -88.0294 215° Southwest 140 161 2,400 -537 Descending Minneapolis Center
Wed 08:18:39 AM 44.5094 -88.0586 222° Southwest 137 158 1,900 -484 Descending Minneapolis Center
Wed 08:20:00 AM 44.4841 -88.1152 235° Southwest  Level FlightAware Approximate
Wed 08:27:00 AM 44.4833 -88.1167 235° Southwest  Level FlightAware Approximate

Login

Don't have an account? Register now (free) for customized features, flight alerts, and more!